sensor_id;sensor_type;location;lat;lon;timestamp;temperature;humidity
22925;DHT22;11628;51.072;3.712;2023-02-01T00:00:13;8.20;99.90
22925;DHT22;11628;51.072;3.712;2023-02-01T00:02:40;8.30;99.90
22925;DHT22;11628;51.072;3.712;2023-02-01T00:05:10;8.20;99.90
22925;DHT22;11628;51.072;3.712;2023-02-01T00:07:37;8.20;99.90
22925;DHT22;11628;51.072;3.712;2023-02-01T00:10:04;8.10;99.90
22925;DHT22;11628;51.072;3.712;2023-02-01T00:12:31;8.10;99.90
22925;DHT22;11628;51.072;3.712;2023-02-01T00:14:57;8.00;99.90
22925;DHT22;11628;51.072;3.712;2023-02-01T00:17:22;8.00;99.90
22925;DHT22;11628;51.072;3.712;2023-02-01T00:19:48;7.80;99.90
22925;DHT22;11628;51.072;3.712;2023-02-01T00:22:14;7.80;99.90
22925;DHT22;11628;51.072;3.712;2023-02-01T00:24:40;7.70;99.90
22925;DHT22;11628;51.072;3.712;2023-02-01T00:27:05;7.70;99.90
22925;DHT22;11628;51.072;3.712;2023-02-01T00:29:31;7.70;99.90
22925;DHT22;11628;51.072;3.712;2023-02-01T00:31:57;7.70;99.90
22925;DHT22;11628;51.072;3.712;2023-02-01T00:34:23;7.60;99.90
22925;DHT22;11628;51.072;3.712;2023-02-01T00:36:49;7.60;99.90
22925;DHT22;11628;51.072;3.712;2023-02-01T00:39:15;7.50;99.90
22925;DHT22;11628;51.072;3.712;2023-02-01T00:41:41;7.40;99.90
22925;DHT22;11628;51.072;3.712;2023-02-01T00:44:08;7.30;99.90
22925;DHT22;11628;51.072;3.712;2023-02-01T00:46:33;7.30;99.90
22925;DHT22;11628;51.072;3.712;2023-02-01T00:48:59;7.30;99.90
22925;DHT22;11628;51.072;3.712;2023-02-01T00:51:27;7.20;99.90
22925;DHT22;11628;51.072;3.712;2023-02-01T00:53:53;7.20;99.90
22925;DHT22;11628;51.072;3.712;2023-02-01T00:56:20;7.10;99.90
22925;DHT22;11628;51.072;3.712;2023-02-01T00:58:45;7.10;99.90
22925;DHT22;11628;51.072;3.712;2023-02-01T01:01:23;7.10;99.90
22925;DHT22;11628;51.072;3.712;2023-02-01T01:03:52;7.10;99.90
22925;DHT22;11628;51.072;3.712;2023-02-01T01:06:25;7.00;99.90
22925;DHT22;11628;51.072;3.712;2023-02-01T01:08:52;7.00;99.90
22925;DHT22;11628;51.072;3.712;2023-02-01T01:11:23;7.00;99.90
22925;DHT22;11628;51.072;3.712;2023-02-01T01:13:50;7.00;99.90
22925;DHT22;11628;51.072;3.712;2023-02-01T01:16:17;7.00;99.90
22925;DHT22;11628;51.072;3.712;2023-02-01T01:18:44;7.00;99.90
22925;DHT22;11628;51.072;3.712;2023-02-01T01:21:12;7.00;99.90
22925;DHT22;11628;51.072;3.712;2023-02-01T01:23:38;6.90;99.90
22925;DHT22;11628;51.072;3.712;2023-02-01T01:26:06;6.90;99.90
22925;DHT22;11628;51.072;3.712;2023-02-01T01:28:32;6.80;99.90
22925;DHT22;11628;51.072;3.712;2023-02-01T01:30:58;6.80;99.90
22925;DHT22;11628;51.072;3.712;2023-02-01T01:33:25;6.80;99.90
22925;DHT22;11628;51.072;3.712;2023-02-01T01:35:50;6.80;99.90
22925;DHT22;11628;51.072;3.712;2023-02-01T01:38:16;6.70;99.90
22925;DHT22;11628;51.072;3.712;2023-02-01T01:40:46;6.70;99.90
22925;DHT22;11628;51.072;3.712;2023-02-01T01:43:19;6.70;99.90
22925;DHT22;11628;51.072;3.712;2023-02-01T01:45:48;6.70;99.90
22925;DHT22;11628;51.072;3.712;2023-02-01T01:48:25;6.60;99.90
22925;DHT22;11628;51.072;3.712;2023-02-01T01:51:19;6.60;99.90
22925;DHT22;11628;51.072;3.712;2023-02-01T01:53:58;6.60;99.90
22925;DHT22;11628;51.072;3.712;2023-02-01T01:56:25;6.60;99.90
22925;DHT22;11628;51.072;3.712;2023-02-01T01:58:55;6.70;99.90
22925;DHT22;11628;51.072;3.712;2023-02-01T02:01:21;6.70;99.90
22925;DHT22;11628;51.072;3.712;2023-02-01T02:03:47;6.60;99.90
22925;DHT22;11628;51.072;3.712;2023-02-01T02:06:42;6.60;99.90
22925;DHT22;11628;51.072;3.712;2023-02-01T02:09:11;6.60;99.90
22925;DHT22;11628;51.072;3.712;2023-02-01T02:11:37;6.50;99.90
22925;DHT22;11628;51.072;3.712;2023-02-01T02:14:06;6.50;99.90
22925;DHT22;11628;51.072;3.712;2023-02-01T02:22:29;6.40;99.90
22925;DHT22;11628;51.072;3.712;2023-02-01T02:34:07;6.40;99.90
22925;DHT22;11628;51.072;3.712;2023-02-01T02:36:15;6.40;99.90
22925;DHT22;11628;51.072;3.712;2023-02-01T02:39:08;6.40;99.90
22925;DHT22;11628;51.072;3.712;2023-02-01T02:45:01;6.40;99.90
22925;DHT22;11628;51.072;3.712;2023-02-01T02:51:01;6.40;99.90
22925;DHT22;11628;51.072;3.712;2023-02-01T02:56:49;6.50;99.90
22925;DHT22;11628;51.072;3.712;2023-02-01T02:59:35;6.50;99.90
22925;DHT22;11628;51.072;3.712;2023-02-01T03:02:20;6.50;99.90
22925;DHT22;11628;51.072;3.712;2023-02-01T03:05:05;6.50;99.90
22925;DHT22;11628;51.072;3.712;2023-02-01T03:13:06;6.40;99.90
22925;DHT22;11628;51.072;3.712;2023-02-01T03:15:36;6.40;99.90
22925;DHT22;11628;51.072;3.712;2023-02-01T03:18:10;6.40;99.90
22925;DHT22;11628;51.072;3.712;2023-02-01T03:20:40;6.50;99.90
22925;DHT22;11628;51.072;3.712;2023-02-01T03:23:09;6.50;99.90
22925;DHT22;11628;51.072;3.712;2023-02-01T03:25:37;6.50;99.90
22925;DHT22;11628;51.072;3.712;2023-02-01T03:28:06;6.40;99.90
22925;DHT22;11628;51.072;3.712;2023-02-01T03:30:36;6.40;99.90
22925;DHT22;11628;51.072;3.712;2023-02-01T03:33:06;6.50;99.90
22925;DHT22;11628;51.072;3.712;2023-02-01T03:39:19;6.50;99.90
22925;DHT22;11628;51.072;3.712;2023-02-01T03:41:55;6.50;99.90
22925;DHT22;11628;51.072;3.712;2023-02-01T03:44:31;6.50;99.90
22925;DHT22;11628;51.072;3.712;2023-02-01T03:47:04;6.50;99.90
22925;DHT22;11628;51.072;3.712;2023-02-01T03:50:00;6.50;99.90
22925;DHT22;11628;51.072;3.712;2023-02-01T03:52:32;6.50;99.90
22925;DHT22;11628;51.072;3.712;2023-02-01T03:54:59;6.50;99.90
22925;DHT22;11628;51.072;3.712;2023-02-01T03:57:32;6.50;99.90
22925;DHT22;11628;51.072;3.712;2023-02-01T04:00:22;6.40;99.90
22925;DHT22;11628;51.072;3.712;2023-02-01T04:02:48;6.40;99.90
22925;DHT22;11628;51.072;3.712;2023-02-01T04:05:14;6.40;99.90
22925;DHT22;11628;51.072;3.712;2023-02-01T04:07:41;6.40;99.90
22925;DHT22;11628;51.072;3.712;2023-02-01T04:10:07;6.30;99.90
22925;DHT22;11628;51.072;3.712;2023-02-01T04:12:33;6.30;99.90
22925;DHT22;11628;51.072;3.712;2023-02-01T04:14:59;6.30;99.90
22925;DHT22;11628;51.072;3.712;2023-02-01T04:17:25;6.30;99.90
22925;DHT22;11628;51.072;3.712;2023-02-01T04:19:51;6.30;99.90
22925;DHT22;11628;51.072;3.712;2023-02-01T04:22:16;6.20;99.90
22925;DHT22;11628;51.072;3.712;2023-02-01T04:24:42;6.20;99.90
22925;DHT22;11628;51.072;3.712;2023-02-01T04:27:08;6.20;99.90
22925;DHT22;11628;51.072;3.712;2023-02-01T04:29:34;6.20;99.90
22925;DHT22;11628;51.072;3.712;2023-02-01T04:32:00;6.10;99.90
22925;DHT22;11628;51.072;3.712;2023-02-01T04:34:25;6.10;99.90
22925;DHT22;11628;51.072;3.712;2023-02-01T04:36:52;6.10;99.90
22925;DHT22;11628;51.072;3.712;2023-02-01T04:39:18;6.10;99.90
22925;DHT22;11628;51.072;3.712;2023-02-01T04:41:44;6.10;99.90
22925;DHT22;11628;51.072;3.712;2023-02-01T04:44:15;6.00;99.90
22925;DHT22;11628;51.072;3.712;2023-02-01T04:46:41;6.00;99.90
22925;DHT22;11628;51.072;3.712;2023-02-01T04:49:09;6.00;99.90
22925;DHT22;11628;51.072;3.712;2023-02-01T04:51:36;6.00;99.90
22925;DHT22;11628;51.072;3.712;2023-02-01T04:54:02;6.10;99.90
22925;DHT22;11628;51.072;3.712;2023-02-01T04:56:28;6.00;99.90
22925;DHT22;11628;51.072;3.712;2023-02-01T04:58:54;6.10;99.90
22925;DHT22;11628;51.072;3.712;2023-02-01T05:01:21;6.10;99.90
22925;DHT22;11628;51.072;3.712;2023-02-01T05:03:48;6.00;99.90
22925;DHT22;11628;51.072;3.712;2023-02-01T05:06:14;6.00;99.90
22925;DHT22;11628;51.072;3.712;2023-02-01T05:08:40;6.00;99.90
22925;DHT22;11628;51.072;3.712;2023-02-01T05:11:06;5.80;99.90
22925;DHT22;11628;51.072;3.712;2023-02-01T05:13:32;5.90;99.90
22925;DHT22;11628;51.072;3.712;2023-02-01T05:16:16;5.80;99.90
22925;DHT22;11628;51.072;3.712;2023-02-01T05:18:42;5.90;99.90
22925;DHT22;11628;51.072;3.712;2023-02-01T05:21:08;5.80;99.90
22925;DHT22;11628;51.072;3.712;2023-02-01T05:23:34;5.90;99.90
22925;DHT22;11628;51.072;3.712;2023-02-01T05:26:20;5.90;99.90
22925;DHT22;11628;51.072;3.712;2023-02-01T05:28:46;6.00;99.90
22925;DHT22;11628;51.072;3.712;2023-02-01T05:31:12;6.00;99.90
22925;DHT22;11628;51.072;3.712;2023-02-01T05:33:38;6.00;99.90
22925;DHT22;11628;51.072;3.712;2023-02-01T05:36:04;6.00;99.90
22925;DHT22;11628;51.072;3.712;2023-02-01T05:38:30;5.90;99.90
22925;DHT22;11628;51.072;3.712;2023-02-01T05:40:56;5.90;99.90
22925;DHT22;11628;51.072;3.712;2023-02-01T05:43:22;5.90;99.90
22925;DHT22;11628;51.072;3.712;2023-02-01T05:45:48;5.90;99.90
22925;DHT22;11628;51.072;3.712;2023-02-01T05:48:14;5.90;99.90
22925;DHT22;11628;51.072;3.712;2023-02-01T05:50:40;5.90;99.90
22925;DHT22;11628;51.072;3.712;2023-02-01T05:53:05;5.90;99.90
22925;DHT22;11628;51.072;3.712;2023-02-01T05:55:32;5.80;99.90
22925;DHT22;11628;51.072;3.712;2023-02-01T05:57:59;5.80;99.90
22925;DHT22;11628;51.072;3.712;2023-02-01T06:00:25;5.80;99.90
22925;DHT22;11628;51.072;3.712;2023-02-01T06:02:51;5.80;99.90
22925;DHT22;11628;51.072;3.712;2023-02-01T06:05:17;5.80;99.90
22925;DHT22;11628;51.072;3.712;2023-02-01T06:07:43;5.70;99.90
22925;DHT22;11628;51.072;3.712;2023-02-01T06:10:09;5.80;99.90
22925;DHT22;11628;51.072;3.712;2023-02-01T06:12:36;5.70;99.90
22925;DHT22;11628;51.072;3.712;2023-02-01T06:15:02;5.80;99.90
22925;DHT22;11628;51.072;3.712;2023-02-01T06:17:29;5.80;99.90
22925;DHT22;11628;51.072;3.712;2023-02-01T06:19:56;5.80;99.90
22925;DHT22;11628;51.072;3.712;2023-02-01T06:22:23;5.80;99.90
22925;DHT22;11628;51.072;3.712;2023-02-01T06:24:49;5.80;99.90
22925;DHT22;11628;51.072;3.712;2023-02-01T06:27:15;5.70;99.90
22925;DHT22;11628;51.072;3.712;2023-02-01T06:29:41;5.80;99.90
22925;DHT22;11628;51.072;3.712;2023-02-01T06:32:07;5.70;99.90
22925;DHT22;11628;51.072;3.712;2023-02-01T06:34:33;5.70;99.90
22925;DHT22;11628;51.072;3.712;2023-02-01T06:36:59;5.80;99.90
22925;DHT22;11628;51.072;3.712;2023-02-01T06:39:26;5.80;99.90
22925;DHT22;11628;51.072;3.712;2023-02-01T06:41:52;5.80;99.90
22925;DHT22;11628;51.072;3.712;2023-02-01T06:44:18;5.80;99.90
22925;DHT22;11628;51.072;3.712;2023-02-01T06:46:45;5.80;99.90
22925;DHT22;11628;51.072;3.712;2023-02-01T06:49:11;5.70;99.90
22925;DHT22;11628;51.072;3.712;2023-02-01T06:51:37;5.70;99.90
22925;DHT22;11628;51.072;3.712;2023-02-01T06:54:03;5.70;99.90
22925;DHT22;11628;51.072;3.712;2023-02-01T06:56:29;5.80;99.90
22925;DHT22;11628;51.072;3.712;2023-02-01T06:58:56;5.80;99.90
22925;DHT22;11628;51.072;3.712;2023-02-01T07:01:22;5.80;99.90
22925;DHT22;11628;51.072;3.712;2023-02-01T07:03:50;5.80;99.90
22925;DHT22;11628;51.072;3.712;2023-02-01T07:06:17;5.80;99.90
22925;DHT22;11628;51.072;3.712;2023-02-01T07:08:43;5.80;99.90
22925;DHT22;11628;51.072;3.712;2023-02-01T07:11:12;5.80;99.90
22925;DHT22;11628;51.072;3.712;2023-02-01T07:13:39;5.80;99.90
22925;DHT22;11628;51.072;3.712;2023-02-01T07:16:08;5.80;99.90
22925;DHT22;11628;51.072;3.712;2023-02-01T07:18:34;5.80;99.90
22925;DHT22;11628;51.072;3.712;2023-02-01T07:21:00;5.80;99.90
22925;DHT22;11628;51.072;3.712;2023-02-01T07:23:26;5.90;99.90
22925;DHT22;11628;51.072;3.712;2023-02-01T07:25:58;5.90;99.90
22925;DHT22;11628;51.072;3.712;2023-02-01T07:28:24;5.90;99.90
22925;DHT22;11628;51.072;3.712;2023-02-01T07:30:51;5.90;99.90
22925;DHT22;11628;51.072;3.712;2023-02-01T07:33:22;5.90;99.90
22925;DHT22;11628;51.072;3.712;2023-02-01T07:35:49;5.90;99.90
22925;DHT22;11628;51.072;3.712;2023-02-01T07:38:16;5.90;99.90
22925;DHT22;11628;51.072;3.712;2023-02-01T07:40:43;6.00;99.90
22925;DHT22;11628;51.072;3.712;2023-02-01T07:43:09;6.10;99.90
22925;DHT22;11628;51.072;3.712;2023-02-01T07:45:36;6.10;99.90
22925;DHT22;11628;51.072;3.712;2023-02-01T07:48:03;6.20;99.90
22925;DHT22;11628;51.072;3.712;2023-02-01T07:50:29;6.20;99.90
22925;DHT22;11628;51.072;3.712;2023-02-01T07:52:57;6.30;99.90
22925;DHT22;11628;51.072;3.712;2023-02-01T07:55:23;6.40;99.90
22925;DHT22;11628;51.072;3.712;2023-02-01T07:57:50;6.60;99.90
22925;DHT22;11628;51.072;3.712;2023-02-01T08:00:16;6.90;99.90
22925;DHT22;11628;51.072;3.712;2023-02-01T08:03:00;7.40;99.90
22925;DHT22;11628;51.072;3.712;2023-02-01T08:05:27;7.70;99.90
22925;DHT22;11628;51.072;3.712;2023-02-01T08:07:53;7.90;99.90
22925;DHT22;11628;51.072;3.712;2023-02-01T08:10:19;7.80;99.90
22925;DHT22;11628;51.072;3.712;2023-02-01T08:12:46;7.70;99.90
22925;DHT22;11628;51.072;3.712;2023-02-01T08:15:14;7.50;99.90
22925;DHT22;11628;51.072;3.712;2023-02-01T08:17:48;7.50;99.90
22925;DHT22;11628;51.072;3.712;2023-02-01T08:20:15;7.60;99.90
22925;DHT22;11628;51.072;3.712;2023-02-01T08:22:41;7.50;99.90
22925;DHT22;11628;51.072;3.712;2023-02-01T08:25:08;7.60;99.90
22925;DHT22;11628;51.072;3.712;2023-02-01T08:27:35;7.60;99.90
22925;DHT22;11628;51.072;3.712;2023-02-01T08:30:02;7.60;99.90
22925;DHT22;11628;51.072;3.712;2023-02-01T08:32:28;7.70;99.90
22925;DHT22;11628;51.072;3.712;2023-02-01T08:34:53;7.80;99.90
22925;DHT22;11628;51.072;3.712;2023-02-01T08:37:19;7.90;99.90
22925;DHT22;11628;51.072;3.712;2023-02-01T08:39:45;7.80;99.90
22925;DHT22;11628;51.072;3.712;2023-02-01T08:42:12;7.80;99.90
22925;DHT22;11628;51.072;3.712;2023-02-01T08:44:57;8.10;99.90
22925;DHT22;11628;51.072;3.712;2023-02-01T08:47:29;8.60;99.90
22925;DHT22;11628;51.072;3.712;2023-02-01T08:49:56;8.80;99.90
22925;DHT22;11628;51.072;3.712;2023-02-01T08:52:22;9.00;99.90
22925;DHT22;11628;51.072;3.712;2023-02-01T08:54:48;9.50;99.90
22925;DHT22;11628;51.072;3.712;2023-02-01T08:57:14;10.30;99.90
22925;DHT22;11628;51.072;3.712;2023-02-01T08:59:40;11.20;99.90
22925;DHT22;11628;51.072;3.712;2023-02-01T09:02:08;11.40;99.90
22925;DHT22;11628;51.072;3.712;2023-02-01T09:04:36;12.40;99.90
22925;DHT22;11628;51.072;3.712;2023-02-01T09:07:02;13.50;99.90
22925;DHT22;11628;51.072;3.712;2023-02-01T09:09:28;14.30;99.90
22925;DHT22;11628;51.072;3.712;2023-02-01T09:11:54;14.70;99.90
22925;DHT22;11628;51.072;3.712;2023-02-01T09:14:20;15.60;99.90
22925;DHT22;11628;51.072;3.712;2023-02-01T09:16:46;15.20;99.90
22925;DHT22;11628;51.072;3.712;2023-02-01T09:19:12;15.00;99.90
22925;DHT22;11628;51.072;3.712;2023-02-01T09:21:37;15.00;99.90
22925;DHT22;11628;51.072;3.712;2023-02-01T09:24:03;15.70;99.90
22925;DHT22;11628;51.072;3.712;2023-02-01T09:26:29;16.90;99.90
22925;DHT22;11628;51.072;3.712;2023-02-01T09:28:55;17.40;99.90
22925;DHT22;11628;51.072;3.712;2023-02-01T09:31:21;17.50;99.90
22925;DHT22;11628;51.072;3.712;2023-02-01T09:33:46;17.90;99.90
22925;DHT22;11628;51.072;3.712;2023-02-01T09:36:12;18.20;99.90
22925;DHT22;11628;51.072;3.712;2023-02-01T09:38:38;19.10;99.90
22925;DHT22;11628;51.072;3.712;2023-02-01T09:41:35;19.60;99.90
22925;DHT22;11628;51.072;3.712;2023-02-01T09:44:14;20.00;99.90
22925;DHT22;11628;51.072;3.712;2023-02-01T09:46:43;20.70;99.90
22925;DHT22;11628;51.072;3.712;2023-02-01T09:49:17;20.50;99.90
22925;DHT22;11628;51.072;3.712;2023-02-01T09:51:46;20.90;99.90
22925;DHT22;11628;51.072;3.712;2023-02-01T09:54:17;21.20;99.90
22925;DHT22;11628;51.072;3.712;2023-02-01T09:56:47;21.50;99.90
22925;DHT22;11628;51.072;3.712;2023-02-01T10:02:17;19.90;99.90
22925;DHT22;11628;51.072;3.712;2023-02-01T10:04:44;18.60;99.90
22925;DHT22;11628;51.072;3.712;2023-02-01T10:09:56;17.20;99.90
22925;DHT22;11628;51.072;3.712;2023-02-01T10:18:11;14.70;99.90
22925;DHT22;11628;51.072;3.712;2023-02-01T10:28:37;19.00;99.90
22925;DHT22;11628;51.072;3.712;2023-02-01T10:31:04;18.40;99.90
22925;DHT22;11628;51.072;3.712;2023-02-01T10:33:34;18.30;99.90
22925;DHT22;11628;51.072;3.712;2023-02-01T10:38:32;19.50;99.90
22925;DHT22;11628;51.072;3.712;2023-02-01T10:41:32;19.90;99.90
22925;DHT22;11628;51.072;3.712;2023-02-01T10:44:00;20.30;99.90
22925;DHT22;11628;51.072;3.712;2023-02-01T10:46:26;19.50;99.90
22925;DHT22;11628;51.072;3.712;2023-02-01T10:48:54;19.40;99.90
22925;DHT22;11628;51.072;3.712;2023-02-01T10:51:38;19.50;99.90
22925;DHT22;11628;51.072;3.712;2023-02-01T10:54:17;20.90;99.90
22925;DHT22;11628;51.072;3.712;2023-02-01T10:56:46;22.60;99.90
22925;DHT22;11628;51.072;3.712;2023-02-01T10:59:20;23.70;97.80
22925;DHT22;11628;51.072;3.712;2023-02-01T11:01:49;24.90;95.60
22925;DHT22;11628;51.072;3.712;2023-02-01T11:04:18;25.90;91.70
22925;DHT22;11628;51.072;3.712;2023-02-01T11:07:03;25.70;90.40
22925;DHT22;11628;51.072;3.712;2023-02-01T11:09:35;24.90;90.10
22925;DHT22;11628;51.072;3.712;2023-02-01T11:12:04;24.10;90.30
22925;DHT22;11628;51.072;3.712;2023-02-01T11:14:40;24.70;90.00
22925;DHT22;11628;51.072;3.712;2023-02-01T11:19:45;24.20;90.10
22925;DHT22;11628;51.072;3.712;2023-02-01T11:22:12;23.40;88.70
22925;DHT22;11628;51.072;3.712;2023-02-01T11:24:41;23.00;89.40
22925;DHT22;11628;51.072;3.712;2023-02-01T11:27:17;23.40;89.60
22925;DHT22;11628;51.072;3.712;2023-02-01T11:29:49;23.00;90.00
22925;DHT22;11628;51.072;3.712;2023-02-01T11:32:17;23.20;89.40
22925;DHT22;11628;51.072;3.712;2023-02-01T11:34:51;23.60;88.20
22925;DHT22;11628;51.072;3.712;2023-02-01T11:37:26;23.60;88.80
22925;DHT22;11628;51.072;3.712;2023-02-01T11:39:58;22.40;89.40
22925;DHT22;11628;51.072;3.712;2023-02-01T11:42:25;19.90;91.90
22925;DHT22;11628;51.072;3.712;2023-02-01T11:44:51;19.30;93.20
22925;DHT22;11628;51.072;3.712;2023-02-01T11:47:40;19.20;93.80
22925;DHT22;11628;51.072;3.712;2023-02-01T11:53:25;18.30;95.10
22925;DHT22;11628;51.072;3.712;2023-02-01T11:58:36;19.70;94.00
22925;DHT22;11628;51.072;3.712;2023-02-01T12:01:10;20.50;93.00
22925;DHT22;11628;51.072;3.712;2023-02-01T12:14:51;24.50;88.70
22925;DHT22;11628;51.072;3.712;2023-02-01T12:22:55;25.60;83.60
22925;DHT22;11628;51.072;3.712;2023-02-01T12:36:34;25.20;80.30
22925;DHT22;11628;51.072;3.712;2023-02-01T12:39:39;23.40;82.00
22925;DHT22;11628;51.072;3.712;2023-02-01T12:42:12;22.20;85.50
22925;DHT22;11628;51.072;3.712;2023-02-01T12:50:03;22.60;86.50
22925;DHT22;11628;51.072;3.712;2023-02-01T12:52:50;23.70;84.60
22925;DHT22;11628;51.072;3.712;2023-02-01T13:00:53;25.70;79.40
22925;DHT22;11628;51.072;3.712;2023-02-01T13:05:59;26.50;77.60
22925;DHT22;11628;51.072;3.712;2023-02-01T13:11:29;26.40;75.20
22925;DHT22;11628;51.072;3.712;2023-02-01T13:19:23;25.90;76.80
22925;DHT22;11628;51.072;3.712;2023-02-01T13:21:56;25.20;76.80
22925;DHT22;11628;51.072;3.712;2023-02-01T13:27:17;24.50;77.90
22925;DHT22;11628;51.072;3.712;2023-02-01T13:41:28;23.40;77.60
22925;DHT22;11628;51.072;3.712;2023-02-01T13:43:59;22.80;80.20
22925;DHT22;11628;51.072;3.712;2023-02-01T13:46:27;22.50;80.50
22925;DHT22;11628;51.072;3.712;2023-02-01T13:48:59;22.20;81.70
22925;DHT22;11628;51.072;3.712;2023-02-01T13:51:44;22.10;81.40
22925;DHT22;11628;51.072;3.712;2023-02-01T13:54:43;21.80;82.50
22925;DHT22;11628;51.072;3.712;2023-02-01T13:57:35;21.40;83.60
22925;DHT22;11628;51.072;3.712;2023-02-01T14:00:50;20.40;85.00
22925;DHT22;11628;51.072;3.712;2023-02-01T14:13:34;16.50;93.40
22925;DHT22;11628;51.072;3.712;2023-02-01T14:21:42;16.00;95.10
22925;DHT22;11628;51.072;3.712;2023-02-01T14:24:25;15.90;95.00
22925;DHT22;11628;51.072;3.712;2023-02-01T14:26:53;15.60;95.30
22925;DHT22;11628;51.072;3.712;2023-02-01T14:32:19;15.00;96.50
22925;DHT22;11628;51.072;3.712;2023-02-01T14:55:45;13.40;99.90
22925;DHT22;11628;51.072;3.712;2023-02-01T14:59:01;13.30;99.90
22925;DHT22;11628;51.072;3.712;2023-02-01T15:01:37;13.20;99.90
22925;DHT22;11628;51.072;3.712;2023-02-01T15:06:46;13.20;99.90
22925;DHT22;11628;51.072;3.712;2023-02-01T15:14:20;13.20;99.90
22925;DHT22;11628;51.072;3.712;2023-02-01T15:16:46;13.10;99.90
22925;DHT22;11628;51.072;3.712;2023-02-01T15:19:34;13.10;99.90
22925;DHT22;11628;51.072;3.712;2023-02-01T15:22:00;13.10;99.90
22925;DHT22;11628;51.072;3.712;2023-02-01T15:24:30;13.00;99.90
22925;DHT22;11628;51.072;3.712;2023-02-01T15:27:04;12.90;99.90
22925;DHT22;11628;51.072;3.712;2023-02-01T15:29:31;12.60;99.90
22925;DHT22;11628;51.072;3.712;2023-02-01T15:31:58;12.60;99.90
22925;DHT22;11628;51.072;3.712;2023-02-01T15:34:44;12.60;99.90
22925;DHT22;11628;51.072;3.712;2023-02-01T15:37:15;12.50;99.90
22925;DHT22;11628;51.072;3.712;2023-02-01T15:40:22;12.40;99.90
22925;DHT22;11628;51.072;3.712;2023-02-01T15:42:55;12.40;99.90
22925;DHT22;11628;51.072;3.712;2023-02-01T15:45:26;12.20;99.90
22925;DHT22;11628;51.072;3.712;2023-02-01T15:47:55;12.10;99.90
22925;DHT22;11628;51.072;3.712;2023-02-01T15:50:22;12.00;99.90
22925;DHT22;11628;51.072;3.712;2023-02-01T15:52:51;12.00;99.90
22925;DHT22;11628;51.072;3.712;2023-02-01T15:55:20;11.90;99.90
22925;DHT22;11628;51.072;3.712;2023-02-01T15:57:48;11.90;99.90
22925;DHT22;11628;51.072;3.712;2023-02-01T16:00:29;11.80;99.90
22925;DHT22;11628;51.072;3.712;2023-02-01T16:03:02;11.90;99.90
22925;DHT22;11628;51.072;3.712;2023-02-01T16:05:41;11.90;99.90
22925;DHT22;11628;51.072;3.712;2023-02-01T16:08:10;11.90;99.90
22925;DHT22;11628;51.072;3.712;2023-02-01T16:10:41;11.90;99.90
22925;DHT22;11628;51.072;3.712;2023-02-01T16:13:07;11.80;99.90
22925;DHT22;11628;51.072;3.712;2023-02-01T16:15:34;11.80;99.90
22925;DHT22;11628;51.072;3.712;2023-02-01T16:18:00;11.70;99.90
22925;DHT22;11628;51.072;3.712;2023-02-01T16:20:26;11.70;99.90
22925;DHT22;11628;51.072;3.712;2023-02-01T16:22:52;11.70;99.90
22925;DHT22;11628;51.072;3.712;2023-02-01T16:25:18;11.50;99.90
22925;DHT22;11628;51.072;3.712;2023-02-01T16:27:44;11.40;99.90
22925;DHT22;11628;51.072;3.712;2023-02-01T16:30:10;11.30;99.90
22925;DHT22;11628;51.072;3.712;2023-02-01T16:32:37;11.30;99.90
22925;DHT22;11628;51.072;3.712;2023-02-01T16:35:13;11.30;99.90
22925;DHT22;11628;51.072;3.712;2023-02-01T16:37:44;11.30;99.90
22925;DHT22;11628;51.072;3.712;2023-02-01T16:40:17;11.20;99.90
22925;DHT22;11628;51.072;3.712;2023-02-01T16:42:43;11.10;99.90
22925;DHT22;11628;51.072;3.712;2023-02-01T16:45:11;11.10;99.90
22925;DHT22;11628;51.072;3.712;2023-02-01T16:47:38;11.10;99.90
22925;DHT22;11628;51.072;3.712;2023-02-01T16:50:15;11.10;99.90
22925;DHT22;11628;51.072;3.712;2023-02-01T16:52:42;11.00;99.90
22925;DHT22;11628;51.072;3.712;2023-02-01T16:55:15;11.00;99.90
22925;DHT22;11628;51.072;3.712;2023-02-01T16:57:42;11.00;99.90
22925;DHT22;11628;51.072;3.712;2023-02-01T17:00:09;11.00;99.90
22925;DHT22;11628;51.072;3.712;2023-02-01T17:02:35;10.90;99.90
22925;DHT22;11628;51.072;3.712;2023-02-01T17:05:01;10.90;99.90
22925;DHT22;11628;51.072;3.712;2023-02-01T17:07:27;10.90;99.90
22925;DHT22;11628;51.072;3.712;2023-02-01T17:09:53;10.80;99.90
22925;DHT22;11628;51.072;3.712;2023-02-01T17:12:26;10.80;99.90
22925;DHT22;11628;51.072;3.712;2023-02-01T17:14:52;10.80;99.90
22925;DHT22;11628;51.072;3.712;2023-02-01T17:17:19;10.80;99.90
22925;DHT22;11628;51.072;3.712;2023-02-01T17:19:49;10.80;99.90
22925;DHT22;11628;51.072;3.712;2023-02-01T17:22:22;10.80;99.90
22925;DHT22;11628;51.072;3.712;2023-02-01T17:24:49;10.90;99.90
22925;DHT22;11628;51.072;3.712;2023-02-01T17:27:16;10.90;99.90
22925;DHT22;11628;51.072;3.712;2023-02-01T17:29:43;10.90;99.90
22925;DHT22;11628;51.072;3.712;2023-02-01T17:32:19;10.90;99.90
22925;DHT22;11628;51.072;3.712;2023-02-01T17:34:45;10.90;99.90
22925;DHT22;11628;51.072;3.712;2023-02-01T17:37:27;10.90;99.90
22925;DHT22;11628;51.072;3.712;2023-02-01T17:39:54;10.90;99.90
22925;DHT22;11628;51.072;3.712;2023-02-01T17:42:23;10.80;99.90
22925;DHT22;11628;51.072;3.712;2023-02-01T17:44:58;10.80;99.90
22925;DHT22;11628;51.072;3.712;2023-02-01T17:47:25;10.80;99.90
22925;DHT22;11628;51.072;3.712;2023-02-01T17:49:50;10.80;99.90
22925;DHT22;11628;51.072;3.712;2023-02-01T17:52:22;10.70;99.90
22925;DHT22;11628;51.072;3.712;2023-02-01T17:54:48;10.70;99.90
22925;DHT22;11628;51.072;3.712;2023-02-01T17:57:18;10.70;99.90
22925;DHT22;11628;51.072;3.712;2023-02-01T17:59:44;10.70;99.90
22925;DHT22;11628;51.072;3.712;2023-02-01T18:02:23;10.70;99.90
22925;DHT22;11628;51.072;3.712;2023-02-01T18:04:50;10.70;99.90
22925;DHT22;11628;51.072;3.712;2023-02-01T18:07:16;10.70;99.90
22925;DHT22;11628;51.072;3.712;2023-02-01T18:09:42;10.70;99.90
22925;DHT22;11628;51.072;3.712;2023-02-01T18:12:18;10.60;99.90
22925;DHT22;11628;51.072;3.712;2023-02-01T18:14:44;10.70;99.90
22925;DHT22;11628;51.072;3.712;2023-02-01T18:17:10;10.60;99.90
22925;DHT22;11628;51.072;3.712;2023-02-01T18:19:37;10.60;99.90
22925;DHT22;11628;51.072;3.712;2023-02-01T18:22:03;10.60;99.90
22925;DHT22;11628;51.072;3.712;2023-02-01T18:24:30;10.70;99.90
22925;DHT22;11628;51.072;3.712;2023-02-01T18:26:58;10.70;99.90
22925;DHT22;11628;51.072;3.712;2023-02-01T18:29:24;10.60;99.90
22925;DHT22;11628;51.072;3.712;2023-02-01T18:31:49;10.60;99.90
22925;DHT22;11628;51.072;3.712;2023-02-01T18:34:16;10.60;99.90
22925;DHT22;11628;51.072;3.712;2023-02-01T18:36:50;10.60;99.90
22925;DHT22;11628;51.072;3.712;2023-02-01T18:39:16;10.60;99.90
22925;DHT22;11628;51.072;3.712;2023-02-01T18:41:45;10.60;99.90
22925;DHT22;11628;51.072;3.712;2023-02-01T18:44:14;10.60;99.90
22925;DHT22;11628;51.072;3.712;2023-02-01T18:46:40;10.50;99.90
22925;DHT22;11628;51.072;3.712;2023-02-01T18:49:07;10.50;99.90
22925;DHT22;11628;51.072;3.712;2023-02-01T18:51:34;10.50;99.90